createdAt,value
2018-11-25T00:02:01.546Z,20.27
2018-11-25T00:04:29.994Z,15.97
2018-11-25T00:06:58.458Z,18.87
2018-11-25T00:09:26.958Z,23.83
2018-11-25T00:11:55.376Z,21.77
2018-11-25T00:14:23.825Z,18.40
2018-11-25T00:16:52.244Z,19.73
2018-11-25T00:19:20.687Z,22.97
2018-11-25T00:21:49.096Z,23.03
2018-11-25T00:24:17.540Z,27.83
2018-11-25T00:26:45.988Z,18.43
2018-11-25T00:29:14.423Z,21.27
2018-11-25T00:31:42.859Z,18.63
2018-11-25T00:34:11.328Z,22.50
2018-11-25T00:36:39.774Z,24.00
2018-11-25T00:39:09.023Z,21.53
2018-11-25T00:41:37.436Z,22.60
2018-11-25T00:44:05.984Z,30.77
2018-11-25T00:46:34.403Z,30.77
2018-11-25T00:49:02.883Z,28.90
2018-11-25T00:51:31.350Z,23.80
2018-11-25T00:53:59.787Z,25.93
2018-11-25T00:56:28.250Z,30.70
2018-11-25T00:58:56.891Z,27.67
2018-11-25T01:01:25.310Z,29.40
2018-11-25T01:03:53.776Z,34.80
2018-11-25T01:06:22.326Z,27.70
2018-11-25T01:08:50.826Z,26.60
2018-11-25T01:11:19.263Z,26.27
2018-11-25T01:13:47.729Z,27.80
2018-11-25T01:16:16.263Z,32.07
2018-11-25T01:18:44.732Z,32.13
2018-11-25T01:21:13.159Z,27.67
2018-11-25T01:23:41.691Z,28.70
2018-11-25T01:26:10.208Z,27.77
2018-11-25T01:28:38.663Z,35.07
2018-11-25T01:31:07.125Z,25.23
2018-11-25T01:33:35.694Z,25.53
2018-11-25T01:36:04.285Z,27.97
2018-11-25T01:38:32.750Z,34.63
2018-11-25T01:41:01.200Z,29.73
2018-11-25T01:43:29.657Z,34.23
2018-11-25T01:45:58.707Z,31.10
2018-11-25T01:48:27.234Z,33.90
2018-11-25T01:50:55.726Z,32.00
2018-11-25T01:53:24.167Z,30.67
2018-11-25T01:55:52.737Z,34.00
2018-11-25T01:58:21.211Z,34.17
2018-11-25T02:00:49.678Z,37.60
2018-11-25T02:03:18.085Z,39.37
2018-11-25T02:05:46.734Z,38.13
2018-11-25T02:08:15.287Z,39.00
2018-11-25T02:10:43.721Z,38.93
2018-11-25T02:13:12.154Z,45.20
2018-11-25T02:15:40.746Z,38.73
2018-11-25T02:18:09.324Z,38.30
2018-11-25T02:20:37.745Z,34.80
2018-11-25T02:23:06.214Z,29.47
2018-11-25T02:25:34.776Z,32.87
2018-11-25T02:28:03.274Z,30.73
2018-11-25T02:30:31.706Z,26.43
2018-11-25T02:33:00.185Z,29.37
2018-11-25T02:35:28.730Z,29.20
2018-11-25T02:37:57.219Z,30.93
2018-11-25T02:40:25.669Z,28.90
2018-11-25T02:42:54.094Z,35.50
2018-11-25T02:45:22.527Z,26.63
2018-11-25T02:47:50.937Z,35.90
2018-11-25T02:50:23.772Z,34.80
2018-11-25T02:52:52.302Z,36.83
2018-11-25T02:55:22.730Z,33.93
2018-11-25T02:57:51.589Z,36.13
2018-11-25T03:00:20.070Z,35.27
2018-11-25T03:02:48.594Z,34.17
2018-11-25T03:05:17.015Z,32.80
2018-11-25T03:07:45.453Z,32.10
2018-11-25T03:10:13.901Z,37.90
2018-11-25T03:12:42.350Z,36.17
2018-11-25T03:15:12.201Z,31.60
2018-11-25T03:17:40.671Z,44.63
2018-11-25T03:20:12.432Z,34.87
2018-11-25T03:22:40.895Z,32.03
2018-11-25T03:25:14.628Z,32.97
2018-11-25T03:27:43.079Z,36.43
2018-11-25T03:30:13.818Z,31.87
2018-11-25T03:32:42.373Z,37.23
2018-11-25T03:35:11.830Z,31.40
2018-11-25T03:37:40.343Z,31.50
2018-11-25T03:40:10.942Z,35.60
2018-11-25T03:42:39.448Z,31.93
2018-11-25T03:45:09.813Z,33.63
2018-11-25T03:47:38.251Z,36.23
2018-11-25T03:50:07.559Z,31.80
2018-11-25T03:52:35.982Z,28.97
2018-11-25T03:55:05.609Z,35.63
2018-11-25T03:57:34.052Z,31.40
2018-11-25T04:00:02.490Z,27.67
2018-11-25T04:02:30.930Z,34.63
2018-11-25T04:04:59.355Z,30.23
2018-11-25T04:07:27.793Z,30.23
2018-11-25T04:09:56.197Z,29.77
2018-11-25T04:12:24.625Z,27.60
2018-11-25T04:14:53.115Z,47.63
2018-11-25T04:17:21.551Z,30.13
2018-11-25T04:19:49.978Z,35.70
2018-11-25T04:22:18.398Z,25.43
2018-11-25T04:24:46.786Z,22.47
2018-11-25T04:27:15.206Z,28.87
2018-11-25T04:29:43.612Z,26.90
2018-11-25T04:32:12.026Z,22.77
2018-11-25T04:34:40.502Z,30.60
2018-11-25T04:37:08.887Z,23.87
2018-11-25T04:39:37.698Z,23.80
2018-11-25T04:42:06.358Z,44.90
2018-11-25T04:44:34.947Z,28.03
2018-11-25T04:47:03.381Z,27.97
2018-11-25T04:49:31.805Z,29.90
2018-11-25T04:52:00.278Z,28.10
2018-11-25T04:54:28.715Z,21.97
2018-11-25T04:56:57.145Z,28.70
2018-11-25T04:59:25.572Z,29.07
2018-11-25T05:01:54.014Z,26.40
2018-11-25T05:04:22.405Z,33.20
2018-11-25T05:06:50.814Z,40.43
2018-11-25T05:09:19.243Z,34.57
2018-11-25T05:11:47.642Z,38.60
2018-11-25T05:14:16.054Z,38.30
2018-11-25T05:16:44.451Z,40.73
2018-11-25T05:19:12.859Z,45.70
2018-11-25T05:21:41.266Z,35.47
2018-11-25T05:24:09.689Z,36.20
2018-11-25T05:26:38.122Z,37.87
2018-11-25T05:29:06.666Z,42.57
2018-11-25T05:31:35.091Z,45.00
2018-11-25T05:34:03.543Z,40.00
2018-11-25T05:36:31.953Z,47.27
2018-11-25T05:39:00.374Z,50.80
2018-11-25T05:41:28.791Z,46.03
2018-11-25T05:43:57.241Z,47.03
2018-11-25T05:46:25.675Z,46.90
2018-11-25T05:48:54.062Z,48.57
2018-11-25T05:51:22.468Z,52.30
2018-11-25T05:53:50.857Z,43.37
2018-11-25T05:56:19.281Z,51.23
2018-11-25T05:58:47.671Z,48.73
2018-11-25T06:01:16.139Z,42.70
2018-11-25T06:03:44.566Z,46.47
2018-11-25T06:06:13.001Z,45.50
2018-11-25T06:08:41.430Z,45.53
2018-11-25T06:11:09.844Z,51.90
2018-11-25T06:13:38.262Z,48.67
2018-11-25T06:16:06.677Z,46.97
2018-11-25T06:18:35.074Z,46.50
2018-11-25T06:21:03.490Z,51.53
2018-11-25T06:23:31.925Z,53.70
2018-11-25T06:26:00.374Z,61.33
2018-11-25T06:28:28.763Z,59.03
2018-11-25T06:30:57.187Z,63.23
2018-11-25T06:33:25.631Z,51.43
2018-11-25T06:35:54.060Z,56.37
2018-11-25T06:38:22.490Z,54.47
2018-11-25T06:40:50.899Z,58.70
2018-11-25T06:43:19.334Z,65.10
2018-11-25T06:45:47.741Z,73.30
2018-11-25T06:48:16.177Z,68.87
2018-11-25T06:50:44.595Z,67.47
2018-11-25T06:53:13.043Z,75.83
2018-11-25T06:55:41.463Z,81.90
2018-11-25T06:58:09.913Z,71.60
2018-11-25T07:00:38.337Z,65.50
2018-11-25T07:03:06.989Z,67.63
2018-11-25T07:05:35.395Z,63.67
2018-11-25T07:08:03.868Z,67.80
2018-11-25T07:10:32.294Z,73.63
2018-11-25T07:13:00.740Z,65.90
2018-11-25T07:15:29.254Z,66.13
2018-11-25T07:17:57.792Z,67.37
2018-11-25T07:20:26.225Z,62.23
2018-11-25T07:22:54.665Z,70.10
2018-11-25T07:25:23.765Z,65.73
2018-11-25T07:27:52.229Z,71.60
2018-11-25T07:30:21.845Z,64.53
2018-11-25T07:32:50.300Z,68.50
2018-11-25T07:35:18.703Z,55.40
2018-11-25T07:37:47.140Z,59.00
2018-11-25T07:40:18.638Z,60.50
2018-11-25T07:42:47.123Z,65.00
2018-11-25T07:45:17.509Z,60.40
2018-11-25T07:47:45.944Z,60.60
2018-11-25T07:50:14.608Z,62.97
2018-11-25T07:52:45.490Z,61.17
2018-11-25T07:55:16.905Z,70.27
2018-11-25T07:57:45.731Z,60.97
2018-11-25T08:00:16.194Z,62.77
2018-11-25T08:02:44.677Z,73.97
2018-11-25T08:05:14.383Z,67.23
2018-11-25T08:07:42.822Z,87.70
2018-11-25T08:10:13.185Z,63.43
2018-11-25T08:12:41.593Z,71.20
2018-11-25T08:15:11.885Z,72.30
2018-11-25T08:17:40.410Z,68.53
2018-11-25T08:20:11.141Z,70.30
2018-11-25T08:22:39.595Z,77.70
2018-11-25T08:25:13.175Z,67.77
2018-11-25T08:27:41.669Z,72.53
2018-11-25T08:30:17.327Z,78.27
2018-11-25T08:32:45.772Z,62.23
2018-11-25T08:35:15.019Z,70.90
2018-11-25T08:37:43.468Z,72.33
2018-11-25T08:40:13.070Z,71.20
2018-11-25T08:42:41.522Z,89.87
2018-11-25T08:45:11.066Z,77.03
2018-11-25T08:47:39.524Z,81.30
2018-11-25T08:50:12.864Z,80.23
2018-11-25T08:52:41.711Z,73.47
2018-11-25T08:55:12.478Z,60.33
2018-11-25T08:57:40.917Z,61.33
2018-11-25T09:00:11.879Z,69.97
2018-11-25T09:02:40.313Z,77.37
2018-11-25T09:05:10.149Z,78.77
2018-11-25T09:07:38.610Z,67.63
2018-11-25T09:10:10.067Z,88.90
2018-11-25T09:12:38.496Z,75.47
2018-11-25T09:15:14.621Z,68.93
2018-11-25T09:17:43.119Z,60.70
2018-11-25T09:20:15.135Z,66.10
2018-11-25T09:22:43.606Z,70.30
2018-11-25T09:25:16.469Z,62.50
2018-11-25T09:27:44.883Z,61.30
2018-11-25T09:30:14.736Z,55.77
2018-11-25T09:32:43.172Z,61.57
2018-11-25T09:35:11.609Z,63.93
2018-11-25T09:37:40.116Z,60.93
2018-11-25T09:40:10.450Z,57.33
2018-11-25T09:42:38.900Z,52.87
2018-11-25T09:45:11.026Z,53.67
2018-11-25T09:47:39.492Z,55.60
2018-11-25T09:50:11.119Z,54.43
2018-11-25T09:52:39.529Z,64.40
2018-11-25T09:55:11.618Z,60.33
2018-11-25T09:57:40.453Z,58.77
2018-11-25T10:00:19.706Z,66.10
2018-11-25T10:02:48.146Z,55.40
2018-11-25T10:05:16.572Z,54.73
2018-11-25T10:07:45.068Z,60.83
2018-11-25T10:10:15.573Z,59.57
2018-11-25T10:12:44.072Z,66.47
2018-11-25T10:15:13.634Z,72.57
2018-11-25T10:17:42.097Z,67.17
2018-11-25T10:20:12.690Z,50.63
2018-11-25T10:22:41.154Z,54.67
2018-11-25T10:25:10.846Z,55.63
2018-11-25T10:27:39.298Z,63.17
2018-11-25T10:30:15.782Z,61.37
2018-11-25T10:32:44.690Z,62.77
2018-11-25T10:35:13.130Z,73.00
2018-11-25T10:37:41.547Z,75.27
2018-11-25T10:40:12.182Z,74.97
2018-11-25T10:42:40.655Z,91.47
2018-11-25T10:45:13.424Z,74.77
2018-11-25T10:47:41.868Z,81.20
2018-11-25T10:50:13.580Z,86.63
2018-11-25T10:52:42.035Z,82.27
2018-11-25T10:55:11.603Z,88.20
2018-11-25T10:57:40.516Z,80.20
2018-11-25T11:00:25.638Z,93.13
2018-11-25T11:02:59.533Z,87.93
2018-11-25T11:05:33.321Z,83.23
2018-11-25T11:08:01.787Z,98.80
2018-11-25T11:10:30.235Z,110.17
2018-11-25T11:12:58.908Z,107.60
2018-11-25T11:15:27.238Z,118.03
2018-11-25T11:17:55.737Z,106.53
2018-11-25T11:20:24.146Z,108.30
2018-11-25T11:22:52.591Z,104.73
2018-11-25T11:25:21.117Z,92.40
2018-11-25T11:27:49.567Z,102.80
2018-11-25T11:30:18.076Z,96.07
2018-11-25T11:32:47.874Z,83.70
2018-11-25T11:35:16.363Z,95.17
2018-11-25T11:37:44.807Z,102.83
2018-11-25T11:40:14.355Z,83.33
2018-11-25T11:42:42.803Z,93.00
2018-11-25T11:45:13.056Z,101.57
2018-11-25T11:47:42.252Z,105.77
2018-11-25T11:50:13.952Z,94.40
2018-11-25T11:52:42.382Z,101.70
2018-11-25T11:55:13.625Z,98.13
2018-11-25T11:57:42.600Z,94.03
2018-11-25T12:00:28.510Z,103.50
2018-11-25T12:02:56.954Z,97.50
2018-11-25T12:05:25.817Z,111.30
2018-11-25T12:07:54.274Z,106.10
2018-11-25T12:10:29.196Z,101.20
2018-11-25T12:12:57.636Z,93.43
2018-11-25T12:15:30.697Z,96.40
2018-11-25T12:17:56.137Z,97.70
2018-11-25T12:20:25.364Z,103.10
2018-11-25T12:22:54.537Z,93.67
2018-11-25T12:25:23.081Z,113.80
2018-11-25T12:27:51.537Z,103.27
2018-11-25T12:30:19.979Z,96.20
2018-11-25T12:32:49.584Z,113.40
2018-11-25T12:35:18.416Z,108.40
2018-11-25T12:37:46.835Z,97.77
2018-11-25T12:40:18.219Z,109.60
2018-11-25T12:42:48.010Z,94.43
2018-11-25T12:45:17.253Z,93.80
2018-11-25T12:47:45.697Z,111.57
2018-11-25T12:50:15.292Z,98.37
2018-11-25T12:52:43.745Z,109.47
2018-11-25T12:55:15.581Z,113.03
2018-11-25T12:57:44.061Z,104.50
2018-11-25T13:00:25.153Z,96.13
2018-11-25T13:02:53.603Z,97.40
2018-11-25T13:05:22.065Z,103.80
2018-11-25T13:07:50.494Z,93.00
2018-11-25T13:10:19.113Z,105.60
2018-11-25T13:12:47.543Z,105.37
2018-11-25T13:15:15.999Z,107.10
2018-11-25T13:17:44.479Z,96.17
2018-11-25T13:20:13.991Z,93.13
2018-11-25T13:22:42.501Z,110.47
2018-11-25T13:25:13.419Z,115.87
2018-11-25T13:27:41.852Z,100.43
2018-11-25T13:30:21.048Z,98.17
2018-11-25T13:32:50.599Z,123.13
2018-11-25T13:35:19.056Z,102.37
2018-11-25T13:37:47.527Z,109.23
2018-11-25T13:40:16.770Z,110.83
2018-11-25T13:42:45.276Z,89.00
2018-11-25T13:45:13.716Z,113.17
2018-11-25T13:47:42.249Z,117.37
2018-11-25T13:50:11.599Z,95.83
2018-11-25T13:52:40.143Z,101.77
2018-11-25T13:55:11.115Z,110.77
2018-11-25T13:57:39.582Z,103.07
2018-11-25T14:01:15.955Z,105.87
2018-11-25T14:03:44.414Z,102.47
2018-11-25T14:06:14.325Z,100.13
2018-11-25T14:08:43.951Z,94.90
2018-11-25T14:11:13.816Z,87.07
2018-11-25T14:13:42.280Z,101.27
2018-11-25T14:16:13.598Z,104.87
2018-11-25T14:18:42.029Z,104.37
2018-11-25T14:21:10.459Z,104.83
2018-11-25T14:23:38.920Z,109.33
2018-11-25T14:26:24.403Z,96.90
2018-11-25T14:28:53.282Z,98.67
2018-11-25T14:31:21.786Z,92.07
2018-11-25T14:33:50.211Z,110.03
2018-11-25T14:36:18.699Z,98.43
2018-11-25T14:38:47.120Z,90.87
2018-11-25T14:41:15.571Z,99.90
2018-11-25T14:43:44.151Z,91.70
2018-11-25T14:46:12.631Z,87.27
2018-11-25T14:48:41.088Z,86.37
2018-11-25T14:51:09.538Z,86.13
2018-11-25T14:53:37.991Z,86.00
2018-11-25T14:56:06.463Z,78.23
2018-11-25T14:58:34.924Z,85.13
2018-11-25T15:01:03.372Z,87.13
2018-11-25T15:03:31.827Z,73.67
2018-11-25T15:06:00.262Z,81.63
2018-11-25T15:08:28.750Z,93.70
2018-11-25T15:10:57.206Z,91.33
2018-11-25T15:13:25.669Z,85.83
2018-11-25T15:15:54.777Z,72.10
2018-11-25T15:18:23.363Z,79.50
2018-11-25T15:20:51.794Z,77.40
2018-11-25T15:23:21.504Z,77.73
2018-11-25T15:25:51.821Z,101.50
2018-11-25T15:28:20.288Z,74.27
2018-11-25T15:30:48.733Z,71.13
2018-11-25T15:33:17.143Z,64.53
2018-11-25T15:35:45.630Z,69.30
2018-11-25T15:38:14.115Z,63.70
2018-11-25T15:40:42.679Z,63.57
2018-11-25T15:43:11.850Z,61.23
2018-11-25T15:45:40.311Z,67.13
2018-11-25T15:48:12.503Z,69.70
2018-11-25T15:50:41.026Z,67.80
2018-11-25T15:53:10.409Z,52.93
2018-11-25T15:55:38.876Z,70.63
2018-11-25T15:58:07.863Z,61.67
2018-11-25T16:00:36.364Z,57.30
2018-11-25T16:03:07.074Z,60.67
2018-11-25T16:05:35.632Z,55.07
2018-11-25T16:08:04.509Z,52.73
2018-11-25T16:10:32.543Z,62.37
2018-11-25T16:13:00.976Z,56.90
2018-11-25T16:15:29.521Z,53.20
2018-11-25T16:17:57.990Z,56.37
2018-11-25T16:20:27.544Z,51.23
2018-11-25T16:22:58.691Z,54.03
2018-11-25T16:25:34.944Z,47.93
2018-11-25T16:28:11.459Z,55.60
2018-11-25T16:30:39.904Z,49.13
2018-11-25T16:33:08.367Z,61.10
2018-11-25T16:35:36.810Z,48.07
2018-11-25T16:38:06.014Z,48.93
2018-11-25T16:40:34.435Z,44.87
2018-11-25T16:43:03.359Z,50.23
2018-11-25T16:45:31.794Z,45.27
2018-11-25T16:48:00.519Z,46.63
2018-11-25T16:50:28.980Z,45.43
2018-11-25T16:52:57.421Z,48.33
2018-11-25T16:55:25.867Z,44.57
2018-11-25T16:57:54.318Z,44.90
2018-11-25T17:00:22.769Z,46.23
2018-11-25T17:02:51.224Z,47.27
2018-11-25T17:05:24.348Z,43.57
2018-11-25T17:07:54.830Z,40.67
2018-11-25T17:10:23.683Z,42.83
2018-11-25T17:12:52.168Z,43.57
2018-11-25T17:15:21.943Z,47.30
2018-11-25T17:17:50.477Z,42.30
2018-11-25T17:20:18.932Z,46.83
2018-11-25T17:22:47.423Z,41.90
2018-11-25T17:25:15.877Z,40.47
2018-11-25T17:27:44.383Z,39.10
2018-11-25T17:30:14.859Z,38.97
2018-11-25T17:32:43.867Z,37.50
2018-11-25T17:35:16.653Z,33.33
2018-11-25T17:37:45.110Z,37.17
2018-11-25T17:40:13.949Z,34.30
2018-11-25T17:42:42.478Z,37.03
2018-11-25T17:45:12.023Z,41.80
2018-11-25T17:47:40.551Z,39.53
2018-11-25T17:50:15.110Z,39.57
2018-11-25T17:52:43.628Z,35.47
2018-11-25T17:55:13.007Z,33.83
2018-11-25T17:57:41.558Z,38.47
2018-11-25T18:00:18.632Z,36.20
2018-11-25T18:02:47.071Z,38.87
2018-11-25T18:05:15.527Z,33.77
2018-11-25T18:07:43.993Z,26.73
2018-11-25T18:10:13.498Z,29.70
2018-11-25T18:12:48.724Z,34.83
2018-11-25T18:15:18.604Z,33.90
2018-11-25T18:17:58.956Z,32.37
2018-11-25T18:20:30.107Z,32.13
2018-11-25T18:22:58.548Z,31.33
2018-11-25T18:25:27.032Z,31.67
2018-11-25T18:28:00.489Z,31.00
2018-11-25T18:30:24.135Z,36.27
2018-11-25T18:32:52.596Z,29.80
2018-11-25T18:35:21.055Z,29.00
2018-11-25T18:37:49.507Z,30.97
2018-11-25T18:40:18.060Z,33.10
2018-11-25T18:42:46.914Z,29.50
2018-11-25T18:45:16.858Z,33.97
2018-11-25T18:47:46.863Z,33.83
2018-11-25T18:50:16.280Z,31.60
2018-11-25T18:52:46.798Z,35.23
2018-11-25T18:55:14.118Z,29.10
2018-11-25T18:57:42.546Z,30.13
2018-11-25T19:00:12.856Z,33.93
2018-11-25T19:02:40.666Z,36.03
2018-11-25T19:05:09.219Z,31.03
2018-11-25T19:07:37.667Z,28.07
2018-11-25T19:10:17.090Z,35.60
2018-11-25T19:12:45.658Z,29.50
2018-11-25T19:15:16.465Z,32.97
2018-11-25T19:17:44.930Z,29.50
2018-11-25T19:20:15.566Z,36.03
2018-11-25T19:22:44.051Z,32.30
2018-11-25T19:25:13.987Z,36.47
2018-11-25T19:27:42.580Z,29.27
2018-11-25T19:30:12.572Z,32.60
2018-11-25T19:32:41.094Z,38.30
2018-11-25T19:35:11.745Z,33.77
2018-11-25T19:37:40.977Z,34.23
2018-11-25T19:40:11.985Z,31.27
2018-11-25T19:42:40.525Z,29.83
2018-11-25T19:45:14.658Z,29.60
2018-11-25T19:47:43.116Z,34.57
2018-11-25T19:50:17.907Z,30.20
2018-11-25T19:52:46.351Z,29.57
2018-11-25T19:55:14.813Z,26.43
2018-11-25T19:57:43.323Z,37.57
2018-11-25T20:00:14.407Z,33.03
2018-11-25T20:02:42.886Z,30.93
2018-11-25T20:05:12.465Z,29.70
2018-11-25T20:07:41.232Z,29.93
2018-11-25T20:10:12.652Z,26.67
2018-11-25T20:12:42.951Z,31.80
2018-11-25T20:15:12.734Z,25.83
2018-11-25T20:17:41.212Z,27.57
2018-11-25T20:20:14.732Z,31.83
2018-11-25T20:22:43.213Z,34.13
2018-11-25T20:25:12.617Z,27.80
2018-11-25T20:27:45.091Z,30.53
2018-11-25T20:30:15.608Z,31.03
2018-11-25T20:32:49.322Z,41.93
2018-11-25T20:35:17.911Z,32.53
2018-11-25T20:37:51.794Z,29.83
2018-11-25T20:40:20.662Z,27.23
2018-11-25T20:42:49.153Z,26.50
2018-11-25T20:45:24.201Z,27.43
2018-11-25T20:47:52.798Z,28.43
2018-11-25T20:50:21.247Z,31.37
2018-11-25T20:52:55.196Z,23.43
2018-11-25T20:55:23.644Z,29.67
2018-11-25T20:57:52.144Z,24.30
2018-11-25T21:00:21.960Z,24.20
2018-11-25T21:02:50.407Z,24.50
2018-11-25T21:05:18.871Z,26.80
2018-11-25T21:07:47.331Z,27.33
2018-11-25T21:10:17.837Z,26.07
2018-11-25T21:12:47.663Z,24.17
2018-11-25T21:15:16.111Z,24.50
2018-11-25T21:17:44.615Z,26.73
2018-11-25T21:20:15.114Z,29.93
2018-11-25T21:22:43.916Z,32.77
2018-11-25T21:25:28.265Z,27.17
2018-11-25T21:27:56.723Z,26.60
2018-11-25T21:30:26.095Z,27.37
2018-11-25T21:32:55.868Z,23.77
2018-11-25T21:35:24.298Z,29.30
2018-11-25T21:37:52.786Z,28.50
2018-11-25T21:40:22.462Z,30.23
2018-11-25T21:42:51.298Z,22.47
2018-11-25T21:45:20.505Z,28.03
2018-11-25T21:47:49.363Z,23.77
2018-11-25T21:50:20.336Z,23.83
2018-11-25T21:52:48.932Z,20.97
2018-11-25T21:55:18.074Z,25.30
2018-11-25T21:57:46.516Z,20.30
2018-11-25T22:00:16.964Z,21.70
2018-11-25T22:02:45.400Z,25.87
2018-11-25T22:05:14.345Z,25.27
2018-11-25T22:07:42.893Z,28.73
2018-11-25T22:10:12.412Z,24.13
2018-11-25T22:12:41.807Z,20.93
2018-11-25T22:15:13.220Z,26.63
2018-11-25T22:17:41.824Z,25.50
2018-11-25T22:20:11.449Z,23.80
2018-11-25T22:22:39.929Z,32.73
2018-11-25T22:25:12.479Z,28.23
2018-11-25T22:27:40.945Z,25.73
2018-11-25T22:30:10.879Z,26.40
2018-11-25T22:32:39.328Z,30.70
2018-11-25T22:35:10.744Z,27.30
2018-11-25T22:37:39.219Z,25.10
2018-11-25T22:40:10.068Z,28.13
2018-11-25T22:42:39.128Z,27.00
2018-11-25T22:45:12.848Z,21.70
2018-11-25T22:47:41.401Z,21.93
2018-11-25T22:50:12.072Z,26.23
2018-11-25T22:52:40.766Z,29.43
2018-11-25T22:55:14.737Z,23.83
2018-11-25T22:57:43.379Z,27.63
2018-11-25T23:00:18.872Z,24.53
2018-11-25T23:02:47.328Z,24.47
2018-11-25T23:05:26.950Z,28.10
2018-11-25T23:07:55.396Z,25.53
2018-11-25T23:10:23.952Z,25.03
2018-11-25T23:12:52.804Z,25.20
2018-11-25T23:15:21.671Z,28.27
2018-11-25T23:17:50.221Z,25.77
2018-11-25T23:20:18.728Z,26.87
2018-11-25T23:22:47.158Z,27.20
2018-11-25T23:25:15.591Z,26.53
2018-11-25T23:27:44.218Z,29.70
2018-11-25T23:30:13.066Z,30.20
2018-11-25T23:32:41.920Z,28.67
2018-11-25T23:35:13.223Z,25.07
2018-11-25T23:37:41.741Z,24.40
2018-11-25T23:40:10.785Z,28.70
2018-11-25T23:42:39.269Z,30.13
2018-11-25T23:45:09.541Z,25.90
2018-11-25T23:47:37.991Z,28.00
2018-11-25T23:50:08.234Z,31.70
2018-11-25T23:52:36.958Z,24.30
2018-11-25T23:55:07.318Z,31.80
2018-11-25T23:57:36.091Z,29.63
